Flight Track Log - Related Links

Times and Time Zones

All times are in EDT time to prevent confusion due to time zone crossing. See the EJA829P flight status page for this flight to view local times or setup timezone preferences in your user account.

Time Position Orientation Groundspeed Altitude Reporting Facility
EDT Latitude Longitude Course Direction KTS MPH feet Rate Location/Type
Tue 07:41:50 PM 40.7833 -74.4333 166° South 193 222 1,500  Level New York TRACON
Tue 07:42:50 PM 40.7333 -74.4167 166° South 221 254 2,600 1,565 Climbing New York TRACON
Tue 07:43:45 PM 40.7500 -74.3500 72° East 250 288 4,500 2,609 Climbing New York TRACON
Tue 07:44:45 PM 40.8000 -74.2833 45° Northeast 301 346 7,600 3,150 Climbing New York TRACON
Tue 07:45:45 PM 40.8667 -74.3167 339° North 301 346 10,800 3,076 Climbing New York TRACON
Tue 07:46:44 PM 40.9500 -74.3500 343° North 294 338 13,700 1,668 Climbing New York TRACON
Tue 07:48:52 PM 41.0994 -74.4717 328° Northwest 312 359 16,000 730 Climbing New York Center
Tue 07:49:53 PM 41.1806 -74.5422 327° Northwest 321 369 16,000 807 Level New York Center
Tue 07:50:51 PM 41.2389 -74.6006 323° Northwest 311 358 17,600 1,373 Climbing New York Center
Tue 07:51:51 PM 41.2983 -74.6953 310° West 298 343 18,700 1,091 Climbing New York Center
Tue 07:52:52 PM 41.3575 -74.7925 309° West 321 369 19,800 650 Climbing New York Center
Tue 07:53:51 PM 41.4228 -74.8961 310° West 344 396 20,000 101 Climbing New York Center
Tue 07:54:51 PM 41.4856 -75.0025 308° West 358 412 20,000  Level New York Center
Tue 07:55:51 PM 41.5486 -75.1061 309° West 364 419 20,000  Level New York Center
Tue 07:56:52 PM 41.6092 -75.2100 308° West 358 412 20,000  Level New York Center
Tue 07:57:52 PM 41.6700 -75.3083 310° West 358 412 20,000  Level New York Center
Tue 07:58:51 PM 41.7308 -75.4097 309° West 353 406 20,000  Level New York Center
Tue 07:59:51 PM 41.7911 -75.5114 309° West 353 406 20,000  Level New York Center
Tue 08:00:52 PM 41.8497 -75.6131 308° West 358 412 20,000 -309 Level New York Center
Tue 08:03:05 PM 42.0225 -75.7603 328° Northwest 326 375 19,000 -777 Descending Boston Center
Tue 08:04:05 PM 42.1200 -75.7739 354° North 333 383 17,500 -1,000 Descending Boston Center
Tue 08:05:05 PM 42.2175 -75.7875 354° North 345 397 17,000 -300 Descending Boston Center
Tue 08:06:05 PM 42.3047 -75.8064 351° North 350 403 16,900 -50 Descending Boston Center
Tue 08:07:05 PM 42.3939 -75.8167 355° North 337 388 16,900  Level Boston Center
Tue 08:08:05 PM 42.4769 -75.8297 353° North 315 362 16,900  Level Boston Center
Tue 08:09:05 PM 42.5619 -75.8456 352° North 308 354 16,900  Level Boston Center
Tue 08:10:05 PM 42.6492 -75.8561 355° North 303 349 16,900  Level Boston Center
Tue 08:11:05 PM 42.7383 -75.8722 352° North 316 364 16,900  Level Boston Center
Tue 08:12:05 PM 42.8275 -75.8858 354° North 316 364 16,900  Level Boston Center
Tue 08:13:05 PM 42.9211 -75.8994 354° North 323 372 16,900  Level Boston Center
Tue 08:14:05 PM 43.0128 -75.9017 359° North 329 379 16,900  Level Boston Center
Tue 08:14:51 PM 43.0903 -75.8861 North 345 397 16,900 -366 Level Boston Center
Tue 08:15:27 PM 43.1442 -75.8978 351° North 339 390 16,400 -1,216 Descending Boston Center
Tue 08:16:05 PM 43.1997 -75.9239 341° North 329 379 15,400 -1,592 Descending Boston Center
Tue 08:17:05 PM 43.2886 -75.9431 351° North 329 379 13,800 -1,600 Descending Boston Center
Tue 08:18:05 PM 43.3819 -75.9600 352° North 318 366 12,200 -1,650 Descending Boston Center
Tue 08:19:05 PM 43.4628 -75.9731 353° North 306 352 10,500 -1,750 Descending Boston Center
Tue 08:20:05 PM 43.5458 -75.9867 353° North 301 346 8,700 -1,750 Descending Boston Center
Tue 08:21:05 PM 43.6286 -76.0058 350° North 301 346 7,000 -1,700 Descending Boston Center
Tue 08:22:05 PM 43.7094 -76.0192 353° North 295 339 5,300 -1,650 Descending Boston Center
Tue 08:23:05 PM 43.7883 -76.0356 351° North 290 334 3,700 -850 Descending Boston Center
Tue 08:24:05 PM 43.8567 -76.0453 354° North 274 315 3,600 -100 Descending Boston Center
Tue 08:25:05 PM 43.9214 -76.0406 North 245 282 3,500 -200 Descending Boston Center
Tue 08:26:05 PM 43.9836 -76.0500 354° North 240 276 3,200 6,750 Descending Boston Center
Tue 08:27:05 PM 44.0525 -76.0542 358° North 240 276 17,000 6,900 Climbing Boston Center
Tue 08:28:05 PM 44.1189 -76.0583 357° North 240 276 17,000  Level Boston Center
Tue 08:29:05 PM 44.1875 -76.0625 358° North 240 276 17,000  Level Boston Center
Tue 08:31:00 PM 44.0340 -76.0297 170° South  Level Estimated
Tue 08:38:00 PM 43.9919 -76.0207 170° South  Level Estimated
Tue 08:39:00 PM 43.9919 -76.0207 170° South  Level Estimated
Tue 08:40:00 PM 43.9919 -76.0207 170° South  Level Estimated
Tue 08:41:00 PM 43.9919 -76.0207 170° South  Level Estimated

Login

Don't have an account? Register now (free) for customized features, flight alerts, and more!